KMGM

Montgomery Regional (Dannelly Field) Airport

Montgomery, Alabama, USA
KMGM 142021Z 1420/1518 09006KT P6SM -RA OVC007 TEMPO 1420/1421 2SM SHRA FM142100 12005KT P6SM VCSH BKN008 FM150000 17005KT P6SM VCSH SCT008 OVC015 FM150800 21005KT P6SM OVC008
Issued Valid From Valid To
Dec-14 @ 20:21 UTC
(2 hours ago)
Dec-14 @ 20:00 UTC
(3 hours ago)
Dec-15 @ 18:00 UTC
(in 19 hours)
Expired Click to View Dec-14 @ 20:00 to Dec-14 @ 21:00
KMGM 142021Z 1420/1518 09006KT P6SM -RA OVC007
Wind Visibility Clouds Conditions
90° at 6 knots Greater than 6 miles
  • Overcast at 700' AGL
  • Light Rain
Expired Click to View Dec-14 @ 20:00 to Dec-14 @ 21:00
TEMPO 1420/1421 2SM SHRA
Visibility Conditions
2 miles
  • Rain
From Dec-14 @ 21:00 to Dec-15 @ 00:00
FM142100 12005KT P6SM VCSH BKN008
Wind Visibility Clouds
120° at 5 knots Greater than 6 miles
  • Broken at 800' AGL
From Dec-15 @ 00:00 to Dec-15 @ 08:00
FM150000 17005KT P6SM VCSH SCT008 OVC015
Wind Visibility Clouds
170° at 5 knots Greater than 6 miles
  • Scattered at 800' AGL
  • Overcast at 1,500' AGL
From Dec-15 @ 08:00 to Dec-15 @ 18:00
FM150800 21005KT P6SM OVC008
Wind Visibility Clouds
210° at 5 knots Greater than 6 miles
  • Overcast at 800' AGL
KMGM 142021Z 1420/1518 09006KT P6SM -RA OVC007 TEMPO 1420/1421 2SM SHRA FM142100 12005KT P6SM VCSH BKN008 FM150000 17005KT P6SM VCSH SCT008 OVC015 FM150800 21005KT P6SM OVC008
Issued Dec-14 @ 20:21 UTC
(2 hours ago)
Valid From Dec-14 @ 20:00 UTC
(3 hours ago)
Valid To Dec-15 @ 18:00 UTC
(in 19 hours)
Dec-14 @ 20:00 - Dec-14 @ 21:00
Wind Visibility
90° at 6 knots Greater than 6 miles
Clouds
  • Overcast at 700' AGL
Conditions
  • Light Rain
Dec-14 @ 20:00 - Dec-14 @ 21:00
Conditions
  • Rain
From Dec-14 @ 21:00 - Dec-15 @ 00:00
Wind Visibility
120° at 5 knots Greater than 6 miles
Clouds
  • Broken at 800' AGL
From Dec-15 @ 00:00 - Dec-15 @ 08:00
Wind Visibility
170° at 5 knots Greater than 6 miles
Clouds
  • Scattered at 800' AGL
  • Overcast at 1,500' AGL
From Dec-15 @ 08:00 - Dec-15 @ 18:00
Wind Visibility
210° at 5 knots Greater than 6 miles
Clouds
  • Overcast at 800' AGL